Time;durP1;ratioP1;P1;durP2;ratioP2;P2;SDS_P1;SDS_P2;PMS_P1;PMS_P2;Temp;Humidity;BMP_temperature;BMP_pressure;BME280_temperature;BME280_humidity;BME280_pressure;Samples;Min_cycle;Max_cycle;Signal;HPM_P1;HPM_P2
2020/12/09 00:00:17;;;;;;;60.28;36.88;;;4.60;99.90;;;;;;4930333;28;20146;-87
2020/12/09 00:07:14;;;;;;;62.42;38.15;;;4.60;99.90;;;;;;4939464;29;20062;-87
2020/12/09 00:13:05;;;;;;;53.15;34.53;;;4.60;99.90;;;;;;4941521;29;20033;-86
2020/12/09 00:15:31;;;;;;;60.25;35.88;;;4.70;99.90;;;;;;4928827;29;20470;-87
2020/12/09 00:17:56;;;;;;;57.22;35.88;;;4.70;99.90;;;;;;4909478;29;20038;-86
2020/12/09 00:20:22;;;;;;;58.42;36.92;;;4.70;99.90;;;;;;4925082;29;20028;-87
2020/12/09 00:22:48;;;;;;;62.53;37.35;;;4.60;99.90;;;;;;4941504;29;20087;-87
2020/12/09 00:25:14;;;;;;;52.10;33.25;;;4.60;99.90;;;;;;4909353;29;20482;-86
2020/12/09 00:27:39;;;;;;;53.47;33.15;;;4.50;99.90;;;;;;4909328;29;20445;-86
2020/12/09 00:30:07;;;;;;;52.25;33.42;;;4.50;99.90;;;;;;4909589;29;20036;-87
2020/12/09 00:36:05;;;;;;;56.40;34.53;;;4.90;99.90;;;;;;4942049;29;20043;-87
2020/12/09 00:38:52;;;;;;;57.08;35.80;;;4.90;99.90;;;;;;4908980;29;20040;-85
2020/12/09 00:41:20;;;;;;;50.75;31.70;;;4.80;99.90;;;;;;4924767;29;20035;-85
2020/12/09 00:43:47;;;;;;;49.67;31.92;;;4.90;99.90;;;;;;4924308;29;20024;-86
2020/12/09 00:46:21;;;;;;;56.60;35.05;;;4.90;99.90;;;;;;4926072;29;20042;-86
2020/12/09 00:48:47;;;;;;;54.22;32.30;;;4.90;99.90;;;;;;4927129;29;20124;-86
2020/12/09 00:51:42;;;;;;;61.90;38.60;;;4.70;99.90;;;;;;4927017;29;20389;-86
2020/12/09 00:54:07;;;;;;;56.30;34.78;;;4.50;99.90;;;;;;4909239;29;20091;-85
2020/12/09 00:56:33;;;;;;;67.00;38.83;;;4.60;99.90;;;;;;4925816;29;20043;-87
2020/12/09 00:58:59;;;;;;;57.50;36.15;;;4.60;99.90;;;;;;4913580;29;20075;-85
2020/12/09 01:01:24;;;;;;;59.15;35.50;;;4.80;99.90;;;;;;4922635;29;20032;-86
2020/12/09 01:07:25;;;;;;;56.25;35.47;;;4.90;99.90;;;;;;4943409;29;20104;-85
2020/12/09 01:13:26;;;;;;;59.63;36.30;;;4.70;99.90;;;;;;4941588;29;20023;-87
2020/12/09 01:15:53;;;;;;;62.33;38.35;;;4.60;99.90;;;;;;4927436;29;20130;-87
2020/12/09 01:18:20;;;;;;;56.67;34.33;;;4.70;99.90;;;;;;4927885;29;20020;-85
2020/12/09 01:20:47;;;;;;;61.40;35.67;;;4.60;99.90;;;;;;4927766;29;20040;-86
2020/12/09 01:23:13;;;;;;;60.97;38.13;;;4.70;99.90;;;;;;4927521;29;20029;-85
2020/12/09 01:25:39;;;;;;;56.40;35.67;;;4.90;99.90;;;;;;4943136;29;20016;-85
2020/12/09 01:28:11;;;;;;;56.88;35.00;;;4.80;99.90;;;;;;4927532;29;20023;-86
2020/12/09 01:30:37;;;;;;;58.72;34.65;;;4.90;99.90;;;;;;4943583;29;20033;-89
2020/12/09 01:33:03;;;;;;;58.58;36.13;;;4.80;99.90;;;;;;4942584;29;20084;-85
2020/12/09 01:36:13;;;;;;;57.38;35.05;;;5.00;99.90;;;;;;4927203;29;20028;-85
2020/12/09 01:38:40;;;;;;;55.63;35.28;;;5.00;99.90;;;;;;4943330;29;20028;-86
2020/12/09 01:41:05;;;;;;;59.72;37.20;;;4.80;99.90;;;;;;4942291;29;20012;-86
2020/12/09 01:43:45;;;;;;;53.78;34.42;;;4.80;99.90;;;;;;4927182;29;20068;-86
2020/12/09 01:46:13;;;;;;;56.83;35.05;;;4.80;99.90;;;;;;4927331;29;20125;-85
2020/12/09 01:48:39;;;;;;;55.67;34.80;;;5.00;99.90;;;;;;4942580;29;20016;-87
2020/12/09 01:51:27;;;;;;;55.63;34.13;;;4.70;99.90;;;;;;4942877;29;20051;-86
2020/12/09 01:53:57;;;;;;;60.63;35.63;;;4.80;99.90;;;;;;4927170;29;20052;-86
2020/12/09 01:56:24;;;;;;;67.18;39.03;;;4.70;99.90;;;;;;4942350;29;20035;-87
2020/12/09 01:58:52;;;;;;;63.22;36.72;;;4.80;99.90;;;;;;4926938;29;20056;-85
2020/12/09 02:01:19;;;;;;;59.20;35.17;;;4.70;99.90;;;;;;4926832;29;20027;-85
2020/12/09 02:07:08;;;;;;;61.50;37.17;;;4.80;99.90;;;;;;4928133;29;20084;-87
2020/12/09 02:10:04;;;;;;;55.80;34.20;;;4.80;99.90;;;;;;4936105;29;20036;-84
2020/12/09 02:12:42;;;;;;;61.10;35.67;;;4.80;99.90;;;;;;4931612;29;20032;-86
2020/12/09 02:15:08;;;;;;;57.13;34.63;;;4.70;99.90;;;;;;4930201;29;20063;-85
2020/12/09 02:17:34;;;;;;;52.25;33.97;;;4.70;99.90;;;;;;4923426;29;20044;-87
2020/12/09 02:20:00;;;;;;;56.88;35.40;;;4.90;99.90;;;;;;4923472;29;20089;-87
2020/12/09 02:22:27;;;;;;;56.40;35.03;;;4.80;99.90;;;;;;4922433;29;20115;-86
2020/12/09 02:24:53;;;;;;;56.15;34.55;;;4.70;99.90;;;;;;4920067;29;20115;-86
2020/12/09 02:27:18;;;;;;;57.05;35.38;;;4.70;99.90;;;;;;4919717;29;20029;-87
2020/12/09 02:29:46;;;;;;;53.30;33.50;;;4.70;99.90;;;;;;4918290;29;20032;-86
2020/12/09 02:32:18;;;;;;;63.83;37.42;;;4.50;99.90;;;;;;4902970;29;20069;-87
2020/12/09 02:34:44;;;;;;;57.08;34.88;;;4.10;99.90;;;;;;4920509;29;20032;-86
2020/12/09 02:40:34;;;;;;;62.67;36.65;;;4.10;99.90;;;;;;4920467;29;20031;-87
2020/12/09 02:42:59;;;;;;;67.25;39.28;;;4.10;99.90;;;;;;4902840;29;20036;-87
2020/12/09 02:45:26;;;;;;;67.72;38.92;;;4.00;99.90;;;;;;4906731;29;20127;-87
2020/12/09 02:48:05;;;;;;;61.30;36.10;;;3.80;99.90;;;;;;4889438;29;20416;-87
2020/12/09 02:50:31;;;;;;;59.33;35.20;;;4.00;99.90;;;;;;4888519;29;20043;-86
2020/12/09 02:52:56;;;;;;;58.67;36.10;;;4.10;99.90;;;;;;4902509;29;20032;-86
2020/12/09 02:55:22;;;;;;;60.45;35.50;;;4.20;99.90;;;;;;4903468;29;20378;-87
2020/12/09 02:57:48;;;;;;;58.70;35.08;;;4.10;99.90;;;;;;4903399;29;20066;-85
2020/12/09 03:00:14;;;;;;;59.30;34.78;;;4.10;99.90;;;;;;4918728;29;20427;-86
2020/12/09 03:02:41;;;;;;;61.53;34.90;;;4.00;99.90;;;;;;4919945;29;20020;-86
2020/12/09 03:05:08;;;;;;;58.03;35.75;;;3.90;99.90;;;;;;4919323;29;20119;-87
2020/12/09 03:07:34;;;;;;;58.78;36.28;;;3.90;99.90;;;;;;4902992;29;20087;-86
2020/12/09 03:10:01;;;;;;;71.25;40.97;;;4.00;99.90;;;;;;4902451;29;20059;-85
2020/12/09 03:12:26;;;;;;;62.67;36.13;;;4.00;99.90;;;;;;4887799;29;20087;-85
2020/12/09 03:14:53;;;;;;;60.17;36.70;;;4.00;99.90;;;;;;4902640;29;20032;-86
2020/12/09 03:17:19;;;;;;;58.50;35.42;;;3.90;99.90;;;;;;4887213;29;20064;-87
2020/12/09 03:20:07;;;;;;;63.30;35.90;;;3.80;99.90;;;;;;4918945;29;20119;-86
2020/12/09 03:22:32;;;;;;;59.38;34.95;;;3.60;99.90;;;;;;4918880;29;20107;-86
2020/12/09 03:24:59;;;;;;;61.10;36.45;;;3.60;99.90;;;;;;4903266;29;20043;-88
2020/12/09 03:27:28;;;;;;;66.05;38.78;;;3.60;99.90;;;;;;4903122;29;20029;-86
2020/12/09 03:29:54;;;;;;;67.07;37.58;;;3.60;99.90;;;;;;4886937;29;20036;-87
2020/12/09 03:32:19;;;;;;;62.58;37.22;;;3.60;99.90;;;;;;4903126;29;20055;-87
2020/12/09 03:34:45;;;;;;;72.32;39.75;;;3.60;99.90;;;;;;4902584;29;20036;-85
2020/12/09 03:37:11;;;;;;;64.82;36.28;;;3.60;99.90;;;;;;4919412;29;20040;-88
2020/12/09 03:39:36;;;;;;;62.58;35.72;;;3.50;99.90;;;;;;4919032;29;20043;-85
2020/12/09 03:42:02;;;;;;;61.38;35.60;;;3.60;99.90;;;;;;4917634;29;20040;-87
2020/12/09 03:44:28;;;;;;;60.25;36.17;;;3.50;99.90;;;;;;4918284;29;20451;-85
2020/12/09 03:46:56;;;;;;;71.15;37.88;;;3.50;99.90;;;;;;4902804;29;20403;-87
2020/12/09 03:49:23;;;;;;;63.80;36.80;;;3.50;99.90;;;;;;4887024;29;20491;-88
2020/12/09 03:51:50;;;;;;;68.95;38.72;;;3.20;99.90;;;;;;4903770;29;20040;-86
2020/12/09 03:54:16;;;;;;;74.13;40.60;;;3.20;99.90;;;;;;4918238;29;20209;-86
2020/12/09 03:56:42;;;;;;;68.40;39.47;;;3.20;99.90;;;;;;4903245;29;20462;-86
2020/12/09 03:59:08;;;;;;;65.53;36.72;;;3.20;99.90;;;;;;4906288;29;20032;-86
2020/12/09 04:01:38;;;;;;;71.38;39.53;;;3.30;99.90;;;;;;4902931;29;20083;-87
2020/12/09 04:04:04;;;;;;;66.78;40.08;;;3.30;99.90;;;;;;4887559;29;20068;-86
2020/12/09 04:06:29;;;;;;;68.65;37.95;;;3.30;99.90;;;;;;4886353;29;20062;-86
2020/12/09 04:09:59;;;;;;;70.95;39.55;;;3.30;99.90;;;;;;4917730;29;20028;-86
2020/12/09 04:12:25;;;;;;;71.93;42.45;;;3.20;99.90;;;;;;4917970;29;20036;-87
2020/12/09 04:14:51;;;;;;;86.22;46.80;;;3.20;99.90;;;;;;4917645;29;20032;-85
2020/12/09 04:17:18;;;;;;;77.95;45.05;;;3.10;99.90;;;;;;4902368;29;20145;-87
2020/12/09 04:19:44;;;;;;;74.55;42.70;;;3.10;99.90;;;;;;4917345;29;20035;-86
2020/12/09 04:22:09;;;;;;;92.80;49.50;;;3.00;99.90;;;;;;4917361;29;20024;-85
2020/12/09 04:24:35;;;;;;;93.30;50.03;;;3.00;99.90;;;;;;4901552;29;20032;-86
2020/12/09 04:27:01;;;;;;;80.90;44.83;;;2.80;99.90;;;;;;4901789;29;20047;-86
2020/12/09 04:29:27;;;;;;;77.35;45.20;;;2.80;99.90;;;;;;4903403;29;20047;-86
2020/12/09 04:31:52;;;;;;;78.60;44.65;;;2.80;99.90;;;;;;4904298;29;20096;-86
2020/12/09 04:34:19;;;;;;;84.43;45.80;;;2.90;99.90;;;;;;4904325;29;20546;-86
2020/12/09 04:36:48;;;;;;;74.25;41.63;;;3.00;99.90;;;;;;4920519;29;20036;-85
2020/12/09 04:39:15;;;;;;;86.43;46.10;;;3.10;99.90;;;;;;4920833;29;20032;-87
2020/12/09 04:41:41;;;;;;;78.20;42.67;;;3.10;99.90;;;;;;4907232;29;20100;-83
2020/12/09 04:44:09;;;;;;;77.68;43.75;;;3.10;99.90;;;;;;4935354;29;20033;-82
2020/12/09 04:46:40;;;;;;;70.78;39.67;;;3.10;99.90;;;;;;4910339;29;20043;-87
2020/12/09 04:49:15;;;;;;;86.50;47.42;;;3.10;99.90;;;;;;4923047;29;20470;-87
2020/12/09 04:52:03;;;;;;;69.13;39.85;;;3.10;99.90;;;;;;4916981;29;20028;-85
2020/12/09 04:54:42;;;;;;;69.57;41.97;;;3.10;99.90;;;;;;4921411;29;20032;-86
2020/12/09 05:00:16;;;;;;;80.40;43.22;;;3.20;99.90;;;;;;4921572;29;20146;-85
2020/12/09 05:05:36;;;;;;;71.80;40.78;;;3.00;99.90;;;;;;4931258;28;20039;-86
2020/12/09 05:08:06;;;;;;;78.15;42.92;;;3.00;99.90;;;;;;4916987;29;20056;-87
2020/12/09 05:10:34;;;;;;;67.75;39.47;;;3.00;99.90;;;;;;4926281;29;20036;-86
2020/12/09 05:13:02;;;;;;;68.50;39.63;;;2.90;99.90;;;;;;4925182;29;20039;-88
2020/12/09 05:16:12;;;;;;;65.13;37.75;;;2.90;99.90;;;;;;4920809;29;20061;-88
2020/12/09 06:58:37;;;;;;;136.55;39.67;;;0.90;99.90;;;;;;6097299;23;20077;-87
2020/12/09 07:01:11;;;;;;;128.15;41.25;;;0.70;99.90;;;;;;4919236;29;20087;-87
2020/12/09 07:03:37;;;;;;;130.77;41.33;;;0.60;99.90;;;;;;4921513;29;20381;-86
2020/12/09 07:06:18;;;;;;;165.88;44.28;;;0.60;99.90;;;;;;4922288;29;20047;-87
2020/12/09 07:08:48;;;;;;;106.90;40.25;;;0.70;99.90;;;;;;4920256;29;20046;-89
2020/12/09 07:11:14;;;;;;;248.77;51.47;;;0.70;99.90;;;;;;4906213;29;20036;-85
2020/12/09 07:13:40;;;;;;;166.65;40.05;;;0.70;99.90;;;;;;4921068;29;20039;-88
2020/12/09 08:46:38;;;;;;;189.02;56.28;;;1.10;99.90;;;;;;5805939;23;20067;-88
2020/12/09 09:37:43;;;;;;;195.27;61.67;;;0.90;99.90;;;;;;4940591;29;20395;-89
2020/12/09 10:00:16;;;;;;;209.77;69.63;;;0.80;99.90;;;;;;4969321;28;20065;-88
2020/12/09 10:29:35;;;;;;;127.85;56.67;;;0.60;99.90;;;;;;4921226;29;20032;-90
2020/12/09 11:22:43;;;;;;;128.35;53.13;;;1.10;99.90;;;;;;4920826;29;20491;-87
2020/12/09 11:45:53;;;;;;;138.52;56.28;;;1.20;99.90;;;;;;4920570;29;20039;-89
2020/12/09 11:51:46;;;;;;;121.28;51.08;;;1.30;99.90;;;;;;4921358;29;20052;-92
2020/12/09 11:54:11;;;;;;;130.55;54.70;;;1.50;99.90;;;;;;4935425;29;20036;-89
2020/12/09 11:56:37;;;;;;;125.85;54.55;;;1.40;99.90;;;;;;4924986;29;20028;-88
2020/12/09 13:34:57;;;;;;;190.90;65.40;;;1.70;99.90;;;;;;4921807;29;20047;-88
2020/12/09 13:47:55;;;;;;;165.98;58.95;;;1.70;99.90;;;;;;4925016;29;20104;-88
2020/12/09 13:57:21;;;;;;;254.15;77.80;;;1.80;99.90;;;;;;4921465;29;20051;-89
2020/12/09 13:59:47;;;;;;;210.00;71.50;;;1.70;99.90;;;;;;4920357;29;20036;-88
2020/12/09 14:02:12;;;;;;;207.57;69.78;;;1.70;99.90;;;;;;4904284;29;20040;-88
2020/12/09 14:22:10;;;;;;;169.20;60.78;;;1.80;99.90;;;;;;4920894;29;20119;-88
2020/12/09 14:28:16;;;;;;;179.68;60.08;;;1.90;99.90;;;;;;4921117;29;20559;-90
2020/12/09 14:55:28;;;;;;;146.48;54.03;;;1.90;99.90;;;;;;4920097;29;20132;-88
2020/12/09 15:18:29;;;;;;;158.35;60.35;;;2.10;99.90;;;;;;4919703;29;20048;-92
2020/12/09 15:27:43;;;;;;;155.90;57.58;;;2.30;99.90;;;;;;4920082;29;20032;-86
2020/12/09 15:30:09;;;;;;;158.50;57.30;;;2.30;99.90;;;;;;4918133;29;20509;-88
2020/12/09 15:33:12;;;;;;;148.07;57.67;;;2.30;99.90;;;;;;4902557;29;20028;-86
2020/12/09 15:38:59;;;;;;;169.23;62.10;;;2.20;99.90;;;;;;4918671;29;20039;-90
2020/12/09 15:44:53;;;;;;;147.77;56.85;;;2.20;99.90;;;;;;4918857;29;20080;-87
2020/12/09 15:47:19;;;;;;;164.93;62.38;;;2.20;99.90;;;;;;4885964;29;20040;-88
2020/12/09 15:49:44;;;;;;;177.35;62.33;;;2.30;99.90;;;;;;4886917;29;20036;-87
2020/12/09 15:52:16;;;;;;;169.60;61.45;;;2.20;99.90;;;;;;4901778;29;20040;-86
2020/12/09 15:54:42;;;;;;;161.48;62.50;;;2.30;99.90;;;;;;4886651;29;20040;-88
2020/12/09 15:57:07;;;;;;;151.10;57.58;;;2.30;99.90;;;;;;4901729;29;20036;-87
2020/12/09 16:33:56;;;;;;;162.02;61.22;;;2.50;99.90;;;;;;4918862;28;20517;-86
2020/12/09 16:36:22;;;;;;;154.90;59.50;;;2.60;99.90;;;;;;4901378;29;20036;-87
2020/12/09 16:38:47;;;;;;;150.75;57.42;;;2.60;99.90;;;;;;4918077;29;20040;-87
2020/12/09 16:41:15;;;;;;;152.68;59.42;;;2.50;99.90;;;;;;4903165;29;20076;-88
2020/12/09 16:47:17;;;;;;;141.15;56.15;;;2.60;99.90;;;;;;4918906;29;20032;-87
2020/12/09 16:49:43;;;;;;;147.70;55.63;;;2.60;99.90;;;;;;4905163;29;20047;-87
2020/12/09 16:52:09;;;;;;;147.02;59.47;;;2.70;99.90;;;;;;4922795;29;20032;-87
2020/12/09 16:54:34;;;;;;;145.70;55.90;;;2.60;99.90;;;;;;4921287;29;20394;-88
2020/12/09 16:57:00;;;;;;;176.93;66.10;;;2.60;99.90;;;;;;4928026;29;20095;-87
2020/12/09 16:59:35;;;;;;;139.02;55.05;;;2.60;99.90;;;;;;4914405;29;20096;-87
2020/12/09 17:02:12;;;;;;;151.60;59.42;;;2.60;99.90;;;;;;4916128;29;20092;-86
2020/12/09 17:04:39;;;;;;;164.50;61.10;;;2.60;99.90;;;;;;4921727;29;20031;-87
2020/12/09 17:07:04;;;;;;;164.35;60.97;;;2.50;99.90;;;;;;4924920;29;20032;-87
2020/12/09 17:09:30;;;;;;;152.25;58.22;;;2.60;99.90;;;;;;4942717;29;20054;-88
2020/12/09 17:11:56;;;;;;;154.00;59.70;;;2.60;99.90;;;;;;4920759;29;20067;-86
2020/12/09 17:14:24;;;;;;;136.38;58.35;;;2.60;99.90;;;;;;4914901;29;20054;-86
2020/12/09 17:16:54;;;;;;;156.77;59.38;;;2.50;99.90;;;;;;4907829;29;20036;-87
2020/12/09 17:19:25;;;;;;;140.13;57.25;;;2.50;99.90;;;;;;4905309;29;20055;-87
2020/12/09 17:21:56;;;;;;;145.68;57.80;;;2.50;99.90;;;;;;4905272;29;20040;-86
2020/12/09 17:24:24;;;;;;;162.85;57.20;;;2.50;99.90;;;;;;4904876;29;20470;-87
2020/12/09 17:26:49;;;;;;;158.88;60.67;;;2.50;99.90;;;;;;4904916;29;20493;-87
2020/12/09 17:29:16;;;;;;;157.35;61.58;;;2.50;99.90;;;;;;4920905;29;20028;-87
2020/12/09 17:31:44;;;;;;;145.13;56.63;;;2.50;99.90;;;;;;4920576;29;20503;-88
2020/12/09 17:34:10;;;;;;;146.55;56.88;;;2.50;99.90;;;;;;4921807;29;20047;-87
2020/12/09 17:36:37;;;;;;;150.23;56.20;;;2.50;99.90;;;;;;4923079;29;20032;-87
2020/12/09 17:39:07;;;;;;;156.75;61.72;;;2.50;99.90;;;;;;4907859;29;20127;-87
2020/12/09 17:41:33;;;;;;;138.20;54.17;;;2.50;99.90;;;;;;4940862;29;20032;-87
2020/12/09 17:43:59;;;;;;;140.70;56.40;;;2.60;99.90;;;;;;4922935;29;20027;-85
2020/12/09 17:46:27;;;;;;;139.60;54.38;;;2.50;99.90;;;;;;4924059;29;20043;-86
2020/12/09 17:48:53;;;;;;;159.18;59.22;;;2.50;99.90;;;;;;4940517;29;20032;-85
2020/12/09 17:51:29;;;;;;;136.13;54.80;;;2.60;99.90;;;;;;4940290;29;20115;-87
2020/12/09 17:54:06;;;;;;;139.95;56.97;;;2.60;99.90;;;;;;4939996;29;20047;-88
2020/12/09 17:56:32;;;;;;;155.27;60.70;;;2.50;99.90;;;;;;4908339;29;20039;-86
2020/12/09 17:59:16;;;;;;;145.23;56.05;;;2.60;99.90;;;;;;4940604;29;20039;-88
2020/12/09 18:01:42;;;;;;;147.35;58.60;;;2.60;99.90;;;;;;4946223;29;20102;-86
2020/12/09 18:04:08;;;;;;;145.23;56.05;;;2.60;99.90;;;;;;4938990;29;20482;-87
2020/12/09 18:06:39;;;;;;;148.77;56.10;;;2.70;99.90;;;;;;4960657;29;20032;-89
2020/12/09 18:09:09;;;;;;;142.07;53.88;;;2.60;99.90;;;;;;4944992;29;20012;-89
2020/12/09 18:11:36;;;;;;;164.90;59.75;;;2.60;99.90;;;;;;4945623;29;20088;-89
2020/12/09 18:14:06;;;;;;;159.35;58.60;;;2.50;99.90;;;;;;4945114;29;20012;-87
2020/12/09 18:16:32;;;;;;;158.70;61.33;;;2.60;99.90;;;;;;4944307;29;20076;-95
2020/12/09 18:18:59;;;;;;;191.45;65.75;;;2.60;99.90;;;;;;4945440;29;20019;-88
2020/12/09 18:21:25;;;;;;;156.57;57.72;;;2.60;99.90;;;;;;4945496;29;20028;-86
2020/12/09 18:23:51;;;;;;;159.55;61.17;;;2.60;99.90;;;;;;4961785;29;20063;-88
2020/12/09 18:26:23;;;;;;;152.05;58.38;;;2.60;99.90;;;;;;4945130;29;20019;-86
2020/12/09 18:28:51;;;;;;;166.55;62.15;;;2.60;99.90;;;;;;4945673;29;20024;-86
2020/12/09 18:31:17;;;;;;;174.45;60.13;;;2.60;99.90;;;;;;4945430;29;20016;-85
2020/12/09 18:33:47;;;;;;;192.65;67.38;;;2.60;99.90;;;;;;4945109;29;20123;-85
2020/12/09 18:36:24;;;;;;;159.90;60.40;;;2.60;99.90;;;;;;4944644;29;20032;-87
2020/12/09 18:38:58;;;;;;;158.27;57.63;;;2.50;99.90;;;;;;4945122;29;20060;-84
2020/12/09 18:41:27;;;;;;;208.48;67.72;;;2.70;99.90;;;;;;4928738;29;20035;-88
2020/12/09 18:43:52;;;;;;;171.10;62.38;;;2.70;99.90;;;;;;4995096;23;20046;-89
2020/12/09 18:46:24;;;;;;;162.27;60.97;;;2.60;99.90;;;;;;4946593;29;20003;-91
2020/12/09 18:48:53;;;;;;;176.05;63.90;;;2.70;99.90;;;;;;4946693;29;20000;-90
2020/12/09 18:51:25;;;;;;;147.23;58.70;;;2.70;99.90;;;;;;4929817;28;20012;-86
2020/12/09 18:56:30;;;;;;;156.30;60.63;;;2.80;99.90;;;;;;4940637;29;20071;-87
2020/12/09 18:59:01;;;;;;;177.02;63.47;;;2.80;99.90;;;;;;4997336;23;20037;-89
2020/12/09 19:01:27;;;;;;;156.20;60.97;;;2.70;99.90;;;;;;4927213;29;20024;-88
2020/12/09 19:03:55;;;;;;;170.60;62.85;;;2.80;99.90;;;;;;4925906;29;20051;-86
2020/12/09 19:06:27;;;;;;;180.90;64.10;;;2.80;99.90;;;;;;4925805;29;20024;-85
2020/12/09 19:16:31;;;;;;;163.95;65.80;;;2.90;99.90;;;;;;4943365;29;20055;-86
2020/12/09 19:18:57;;;;;;;171.73;64.78;;;2.90;99.90;;;;;;4925264;29;20027;-85
2020/12/09 19:21:25;;;;;;;162.07;61.35;;;2.90;99.90;;;;;;4908702;29;20035;-87
2020/12/09 19:23:54;;;;;;;168.07;61.17;;;2.90;99.90;;;;;;4927090;29;20035;-87
2020/12/09 19:26:32;;;;;;;167.77;63.47;;;2.90;99.90;;;;;;4946324;29;20031;-88
2020/12/09 19:29:00;;;;;;;172.52;66.22;;;2.90;99.90;;;;;;4924972;29;20038;-87
2020/12/09 19:31:31;;;;;;;141.82;58.53;;;3.00;99.90;;;;;;4941862;29;20043;-86
2020/12/09 19:33:57;;;;;;;160.32;63.63;;;3.00;99.90;;;;;;4925562;29;20540;-85
2020/12/09 19:36:28;;;;;;;153.68;62.42;;;3.00;99.90;;;;;;4940060;29;20046;-88
2020/12/09 19:38:54;;;;;;;161.27;61.63;;;3.00;99.90;;;;;;4923435;29;20028;-87
2020/12/09 19:41:22;;;;;;;152.38;60.40;;;3.10;99.90;;;;;;4923095;29;20030;-87
2020/12/09 19:43:48;;;;;;;139.13;57.92;;;3.00;99.90;;;;;;4925717;29;20054;-86
2020/12/09 19:46:27;;;;;;;;;;;;;;;;;;;;;
2020/12/09 19:48:54;;;;;;;157.73;61.80;;;3.10;99.90;;;;;;4953627;28;20071;-87
2020/12/09 19:51:23;;;;;;;161.50;63.20;;;3.10;99.90;;;;;;4930229;29;20087;-87
2020/12/09 19:57:17;;;;;;;145.80;60.92;;;3.20;99.90;;;;;;4939970;29;20167;-88
2020/12/09 20:06:35;;;;;;;153.70;62.05;;;3.20;99.90;;;;;;4940514;29;20032;-88
2020/12/09 20:19:13;;;;;;;146.55;62.33;;;3.30;99.90;;;;;;4940131;29;20075;-87
2020/12/09 20:21:40;;;;;;;133.43;57.88;;;3.30;99.90;;;;;;4906182;29;20096;-85
2020/12/09 20:24:10;;;;;;;135.88;57.13;;;3.30;99.90;;;;;;4925321;29;20147;-86
2020/12/09 20:33:17;;;;;;;138.13;57.92;;;3.40;99.90;;;;;;4948328;29;20134;-87
2020/12/09 20:35:50;;;;;;;136.67;59.50;;;3.40;99.90;;;;;;4932885;29;20039;-86
2020/12/09 20:55:30;;;;;;;135.82;59.42;;;3.50;99.90;;;;;;4926603;29;20036;-89
2020/12/09 20:57:56;;;;;;;131.98;56.20;;;3.50;99.90;;;;;;4927312;29;20051;-87
2020/12/09 21:00:26;;;;;;;128.75;57.92;;;3.50;99.90;;;;;;4891523;29;20036;-86
2020/12/09 21:02:52;;;;;;;129.68;56.72;;;3.50;99.90;;;;;;4911427;29;20042;-86
2020/12/09 21:05:20;;;;;;;121.28;54.38;;;3.60;99.90;;;;;;4926558;29;20028;-86
2020/12/09 21:07:46;;;;;;;135.73;60.28;;;3.60;99.90;;;;;;4928770;29;20087;-85
2020/12/09 21:10:21;;;;;;;115.38;54.47;;;3.60;99.90;;;;;;4929459;29;20532;-85
2020/12/09 21:12:47;;;;;;;122.25;55.35;;;3.60;99.90;;;;;;4927323;29;20032;-85
2020/12/09 21:15:12;;;;;;;129.40;58.25;;;3.60;99.90;;;;;;4913223;29;20055;-85
2020/12/09 21:17:38;;;;;;;125.53;56.63;;;3.60;99.90;;;;;;4923215;29;20031;-84
2020/12/09 21:20:05;;;;;;;121.22;56.40;;;3.60;99.90;;;;;;4911277;29;20181;-85
2020/12/09 21:22:30;;;;;;;115.30;53.67;;;3.60;99.90;;;;;;4927103;29;20031;-85
2020/12/09 21:24:56;;;;;;;125.07;55.97;;;3.60;99.90;;;;;;4910210;29;20049;-86
2020/12/09 21:27:22;;;;;;;112.82;54.42;;;3.60;99.90;;;;;;4910092;29;20042;-87
2020/12/09 21:30:00;;;;;;;123.95;57.53;;;3.60;99.90;;;;;;4910806;29;20032;-87
2020/12/09 21:32:31;;;;;;;117.13;55.20;;;3.70;99.90;;;;;;4893789;29;20150;-86
2020/12/09 21:34:57;;;;;;;128.48;59.40;;;3.70;99.90;;;;;;4925612;29;20031;-85
2020/12/09 21:37:23;;;;;;;110.38;51.80;;;3.70;99.90;;;;;;4941553;29;20478;-86
2020/12/09 21:39:49;;;;;;;113.43;53.85;;;3.80;99.90;;;;;;4921892;29;20035;-85
2020/12/09 21:42:15;;;;;;;104.65;51.67;;;3.70;99.90;;;;;;4926551;29;20028;-86
2020/12/09 21:44:53;;;;;;;114.28;54.83;;;3.80;99.90;;;;;;4932764;29;20039;-86
2020/12/09 21:47:20;;;;;;;110.18;50.13;;;3.80;99.90;;;;;;4926896;29;20501;-86
2020/12/09 21:49:53;;;;;;;116.90;53.38;;;3.80;99.90;;;;;;4932549;29;20204;-85
2020/12/09 21:52:20;;;;;;;103.47;52.72;;;3.80;99.90;;;;;;4914541;29;20039;-86
2020/12/09 21:54:51;;;;;;;101.60;49.50;;;3.80;99.90;;;;;;4925803;29;20383;-85
2020/12/09 21:57:20;;;;;;;106.85;52.05;;;3.80;99.90;;;;;;4941788;29;20115;-84
2020/12/09 21:59:49;;;;;;;101.05;50.50;;;3.80;99.90;;;;;;4926356;29;20032;-87
2020/12/09 22:02:15;;;;;;;100.82;50.28;;;3.90;99.90;;;;;;4941968;29;20043;-85
2020/12/09 22:04:48;;;;;;;109.45;52.15;;;3.90;99.90;;;;;;4926189;29;20034;-86
2020/12/09 22:07:16;;;;;;;97.80;50.50;;;3.80;99.90;;;;;;4927729;29;20028;-86
2020/12/09 22:09:44;;;;;;;110.05;51.90;;;3.80;99.90;;;;;;4885858;29;20047;-85
2020/12/09 22:12:12;;;;;;;111.18;55.25;;;3.80;99.90;;;;;;4865237;29;20064;-85
2020/12/09 22:14:58;;;;;;;104.57;53.35;;;3.80;99.90;;;;;;4869354;29;20064;-85
2020/12/09 22:17:26;;;;;;;98.70;50.28;;;3.90;99.90;;;;;;4867743;29;20039;-88
2020/12/09 22:19:53;;;;;;;114.40;54.75;;;3.90;99.90;;;;;;4870431;29;20128;-87
2020/12/09 22:22:21;;;;;;;96.88;49.30;;;3.90;99.90;;;;;;4889830;29;20029;-86
2020/12/09 22:25:06;;;;;;;102.95;51.70;;;4.00;99.90;;;;;;4885640;29;20052;-84
2020/12/09 22:27:34;;;;;;;112.95;54.70;;;4.00;99.90;;;;;;4891917;29;20056;-87
2020/12/09 22:30:00;;;;;;;105.68;51.80;;;3.90;99.90;;;;;;4893763;29;20032;-88
2020/12/09 22:32:30;;;;;;;107.18;54.20;;;4.00;99.90;;;;;;4889982;29;20074;-88
2020/12/09 22:34:56;;;;;;;98.05;50.20;;;3.90;99.90;;;;;;4891804;29;20048;-85
2020/12/09 22:37:24;;;;;;;116.75;53.33;;;4.00;99.90;;;;;;4891438;29;20055;-86
2020/12/09 22:39:50;;;;;;;110.80;53.55;;;4.00;99.90;;;;;;4898095;29;20055;-86
2020/12/09 22:42:18;;;;;;;108.45;53.80;;;4.00;99.90;;;;;;4940214;29;20036;-88
2020/12/09 22:44:44;;;;;;;116.32;54.08;;;4.00;99.90;;;;;;4940834;29;20031;-87
2020/12/09 22:47:10;;;;;;;101.85;50.50;;;4.00;99.90;;;;;;4923456;29;20397;-87
2020/12/09 22:49:35;;;;;;;111.97;51.45;;;3.90;99.90;;;;;;4941753;29;20207;-87
2020/12/09 22:52:04;;;;;;;114.85;54.40;;;3.90;99.90;;;;;;4922822;29;20028;-88
2020/12/09 22:54:29;;;;;;;107.95;51.60;;;4.00;99.90;;;;;;4923076;29;20053;-86
2020/12/09 22:56:55;;;;;;;109.10;50.95;;;4.00;99.90;;;;;;4922616;29;20533;-87
2020/12/09 22:59:21;;;;;;;121.93;57.13;;;4.00;99.90;;;;;;4922856;29;20417;-87
2020/12/09 23:01:49;;;;;;;111.07;53.72;;;4.00;99.90;;;;;;4923279;29;20468;-87
2020/12/09 23:08:01;;;;;;;114.95;52.58;;;4.00;99.90;;;;;;4852479;29;20085;-88
2020/12/09 23:10:30;;;;;;;112.65;54.50;;;4.10;99.90;;;;;;4922731;29;20063;-86
2020/12/09 23:12:56;;;;;;;107.90;51.60;;;4.10;99.90;;;;;;4939934;29;20505;-86
2020/12/09 23:15:21;;;;;;;107.90;51.97;;;4.20;99.90;;;;;;4921904;29;20063;-88
2020/12/09 23:20:57;;;;;;;114.35;52.72;;;4.10;99.90;;;;;;4940206;29;20054;-85
2020/12/09 23:23:23;;;;;;;120.97;54.05;;;4.10;99.90;;;;;;4922030;29;20047;-85
2020/12/09 23:25:48;;;;;;;112.15;52.22;;;4.10;99.90;;;;;;4911635;29;20020;-86
2020/12/09 23:30:47;;;;;;;112.70;52.58;;;4.20;99.90;;;;;;4941808;29;20063;-88
2020/12/09 23:33:14;;;;;;;110.25;51.40;;;4.10;99.90;;;;;;4924267;29;20593;-86
2020/12/09 23:35:40;;;;;;;107.30;52.47;;;4.20;99.90;;;;;;4924838;29;20167;-87
2020/12/09 23:38:08;;;;;;;117.75;53.50;;;4.20;99.90;;;;;;4909682;29;20111;-88
2020/12/09 23:40:34;;;;;;;108.47;52.83;;;4.20;99.90;;;;;;4941913;29;20028;-87
2020/12/09 23:43:00;;;;;;;112.90;50.92;;;4.30;99.90;;;;;;4927249;29;20007;-86
2020/12/09 23:45:27;;;;;;;105.65;49.40;;;4.30;99.90;;;;;;4925026;29;20032;-88
2020/12/09 23:47:53;;;;;;;104.82;49.72;;;4.30;99.90;;;;;;4942482;29;20028;-87
2020/12/09 23:50:19;;;;;;;103.47;47.78;;;4.40;99.90;;;;;;4924728;29;20032;-87
2020/12/09 23:52:51;;;;;;;116.05;52.38;;;4.30;99.90;;;;;;4926759;29;20023;-88
2020/12/09 23:55:17;;;;;;;105.13;49.85;;;4.30;99.90;;;;;;4936719;29;20031;-87
2020/12/09 23:57:43;;;;;;;103.47;50.47;;;4.30;99.90;;;;;;4942346;29;20091;-87
